| time (UTC) | temp C | wind direction | speed KPH | gust KPH | rain 1hr cm | rain 24hr cm | rain mn cm | humidity % | barometer mb |
| 20260508104648 | 7 | 331 | 3.2 | 16.1 | 0.00 | 0.00 | 0.00 | 73 | 1017.8 |
| 20260508103110 | 8 | 122 | 1.6 | 6.4 | 0.00 | 0.00 | 0.00 | 67 | 1017.9 |
| 20260508100032 | 10 | 132 | 3.2 | 6.4 | 0.00 | 0.00 | 0.00 | 63 | 1017.9 |
| 20260508094537 | 11 | 259 | 1.6 | 9.7 | 0.00 | 0.00 | 0.00 | 61 | 1017.8 |
| 20260508093035 | 11 | 308 | 6.4 | 14.5 | 0.00 | 0.00 | 0.00 | 60 | 1017.8 |
| 20260508091535 | 11 | 289 | 4.8 | 16.1 | 0.00 | 0.00 | 0.00 | 61 | 1017.7 |
| 20260508090036 | 10 | 288 | 4.8 | 14.5 | 0.00 | 0.00 | 0.00 | 64 | 1017.6 |
| 20260508084532 | 9 | 250 | 1.6 | 9.7 | 0.00 | 0.00 | 0.00 | 63 | 1017.6 |
| 20260508083107 | 10 | 316 | 0.0 | 6.4 | 0.00 | 0.00 | 0.00 | 60 | 1017.6 |
| 20260508081534 | 10 | 325 | 3.2 | 9.7 | 0.00 | 0.00 | 0.00 | 57 | 1017.7 |
| 20260508080036 | 11 | 308 | 3.2 | 8.0 | 0.00 | 0.00 | 0.00 | 53 | 1017.7 |
| 20260508074537 | 12 | 315 | 3.2 | 11.3 | 0.00 | 0.00 | 0.00 | 48 | 1017.7 |
| 20260508073036 | 13 | 324 | 4.8 | 9.7 | 0.00 | 0.00 | 0.00 | 44 | 1017.7 |
| 20260508071536 | 14 | 269 | 6.4 | 11.3 | 0.00 | 0.00 | 0.00 | 44 | 1017.6 |
| 20260508070031 | 14 | 275 | 6.4 | 16.1 | 0.00 | 0.00 | 0.00 | 44 | 1017.6 |
| 20260508064530 | 14 | 269 | 6.4 | 17.7 | 0.00 | 0.00 | 0.00 | 44 | 1017.6 |
| 20260508063030 | 15 | 269 | 6.4 | 16.1 | 0.00 | 0.00 | 0.00 | 44 | 1017.6 |
| 20260508061532 | 15 | 277 | 6.4 | 17.7 | 0.00 | 0.00 | 0.00 | 44 | 1017.6 |
| 20260508060029 | 15 | 282 | 6.4 | 17.7 | 0.00 | 0.00 | 0.00 | 43 | 1017.6 |
| 20260508054534 | 16 | 286 | 6.4 | 19.3 | 0.00 | 0.00 | 0.00 | 41 | 1017.6 |
| 20260508053031 | 16 | 282 | 9.7 | 27.4 | 0.00 | 0.00 | 0.00 | 41 | 1017.6 |
| 20260508051534 | 16 | 282 | 11.3 | 24.1 | 0.00 | 0.00 | 0.00 | 42 | 1017.6 |
| 20260508050031 | 16 | 279 | 11.3 | 25.7 | 0.00 | 0.00 | 0.00 | 42 | 1017.5 |
| 20260508044532 | 16 | 272 | 9.7 | 24.1 | 0.00 | 0.00 | 0.00 | 42 | 1017.6 |
| 20260508043034 | 16 | 269 | 9.7 | 20.9 | 0.00 | 0.00 | 0.00 | 42 | 1017.4 |
| 20260508040032 | 16 | 275 | 9.7 | 25.7 | 0.00 | 0.00 | 0.00 | 40 | 1017.2 |
| 20260508033032 | 16 | 290 | 8.0 | 17.7 | 0.00 | 0.00 | 0.00 | 36 | 1017.0 |
| 20260508031610 | 17 | 291 | 4.8 | 12.9 | 0.00 | 0.00 | 0.00 | 33 | 1016.9 |
| 20260508024535 | 18 | 302 | 9.7 | 24.1 | 0.00 | 0.00 | 0.00 | 30 | 1016.8 |
| 20260508023033 | 18 | 299 | 11.3 | 24.1 | 0.00 | 0.00 | 0.00 | 29 | 1016.6 |
| 20260508021528 | 18 | 298 | 9.7 | 20.9 | 0.00 | 0.00 | 0.00 | 29 | 1016.5 |
| 20260508020035 | 19 | 296 | 11.3 | 30.6 | 0.00 | 0.00 | 0.00 | 28 | 1016.5 |
| 20260508013031 | 21 | 301 | 12.9 | 27.4 | 0.00 | 0.00 | 0.00 | 25 | 1016.5 |
| 20260508011535 | 21 | 289 | 11.3 | 27.4 | 0.00 | 0.00 | 0.00 | 25 | 1016.7 |
| 20260508010036 | 21 | 296 | 11.3 | 29.0 | 0.00 | 0.00 | 0.00 | 25 | 1016.7 |
| 20260508004530 | 21 | 291 | 11.3 | 29.0 | 0.00 | 0.00 | 0.00 | 24 | 1016.7 |
| 20260508003035 | 21 | 292 | 11.3 | 29.0 | 0.00 | 0.00 | 0.00 | 24 | 1016.7 |
| 20260508001536 | 21 | 291 | 12.9 | 25.7 | 0.00 | 0.00 | 0.00 | 23 | 1016.7 |
| 20260507234531 | 21 | 284 | 14.5 | 33.8 | 0.00 | 0.00 | 0.00 | 23 | 1016.6 |
| 20260507231610 | 21 | 284 | 16.1 | 38.6 | 0.00 | 0.00 | 0.00 | 25 | 1016.8 |
| 20260507230034 | 21 | 282 | 14.5 | 30.6 | 0.00 | 0.00 | 0.00 | 26 | 1016.9 |
| 20260507224529 | 21 | 290 | 12.9 | 35.4 | 0.00 | 0.00 | 0.00 | 29 | 1017.0 |
| 20260507223031 | 21 | 283 | 14.5 | 38.6 | 0.00 | 0.00 | 0.00 | 31 | 1017.0 |
| 20260507220108 | 21 | 284 | 11.3 | 29.0 | 0.00 | 0.00 | 0.00 | 34 | 1017.6 |
| 20260507214610 | 20 | 277 | 12.9 | 38.6 | 0.00 | 0.00 | 0.00 | 35 | 1017.8 |
| 20260507213112 | 20 | 268 | 11.3 | 29.0 | 0.00 | 0.00 | 0.00 | 36 | 1017.9 |
| 20260507210035 | 20 | 290 | 14.5 | 35.4 | 0.00 | 0.00 | 0.00 | 38 | 1017.9 |
| 20260507204536 | 20 | 290 | 14.5 | 38.6 | 0.00 | 0.00 | 0.00 | 39 | 1018.0 |
| 20260507203034 | 20 | 291 | 17.7 | 37.0 | 0.00 | 0.00 | 0.00 | 39 | 1018.0 |
| 20260507201532 | 20 | 293 | 16.1 | 38.6 | 0.00 | 0.00 | 0.00 | 40 | 1018.3 |
| 20260507200036 | 20 | 296 | 16.1 | 37.0 | 0.00 | 0.00 | 0.00 | 41 | 1018.4 |
| 20260507194532 | 19 | 294 | 17.7 | 37.0 | 0.00 | 0.00 | 0.00 | 42 | 1018.6 |
| 20260507191529 | 18 | 302 | 17.7 | 46.7 | 0.00 | 0.00 | 0.00 | 48 | 1019.0 |
| 20260507190034 | 18 | 296 | 14.5 | 33.8 | 0.00 | 0.00 | 0.00 | 48 | 1019.5 |
| 20260507184610 | 19 | 277 | 12.9 | 30.6 | 0.00 | 0.00 | 0.00 | 48 | 1019.8 |
| 20260507181534 | 18 | 307 | 6.4 | 22.5 | 0.00 | 0.00 | 0.00 | 54 | 1020.0 |
| 20260507180031 | 17 | 289 | 9.7 | 22.5 | 0.00 | 0.00 | 0.00 | 55 | 1020.0 |
| 20260507173035 | 16 | 271 | 14.5 | 40.2 | 0.00 | 0.00 | 0.00 | 58 | 1020.0 |
| 20260507170035 | 15 | 266 | 16.1 | 37.0 | 0.00 | 0.00 | 0.00 | 61 | 1020.3 |
| 20260507164533 | 14 | 276 | 16.1 | 35.4 | 0.00 | 0.00 | 0.00 | 63 | 1020.4 |
| 20260507163110 | 14 | 283 | 14.5 | 40.2 | 0.00 | 0.00 | 0.00 | 64 | 1020.6 |
| 20260507161534 | 13 | 279 | 14.5 | 33.8 | 0.00 | 0.00 | 0.00 | 66 | 1020.7 |
| 20260507154609 | 13 | 285 | 14.5 | 37.0 | 0.00 | 0.00 | 0.00 | 70 | 1020.8 |
| 20260507153036 | 13 | 287 | 14.5 | 33.8 | 0.00 | 0.00 | 0.00 | 71 | 1020.8 |
| 20260507151534 | 12 | 296 | 14.5 | 38.6 | 0.00 | 0.00 | 0.00 | 74 | 1020.9 |
| 20260507150043 | 12 | 295 | 11.3 | 29.0 | 0.00 | 0.00 | 0.00 | 75 | 1021.0 |
| 20260507143033 | 11 | 294 | 9.7 | 25.7 | 0.00 | 0.00 | 0.00 | 80 | 1021.1 |
| 20260507141532 | 10 | 292 | 11.3 | 24.1 | 0.00 | 0.00 | 0.00 | 81 | 1021.0 |
| 20260507140110 | 10 | 307 | 11.3 | 30.6 | 0.00 | 0.00 | 0.00 | 81 | 1020.7 |
| 20260507134658 | 10 | 288 | 11.3 | 25.7 | 0.00 | 0.00 | 0.00 | 81 | 1020.4 |
| 20260507133033 | 10 | 290 | 12.9 | 30.6 | 0.00 | 0.00 | 0.00 | 81 | 1020.2 |
| 20260507131536 | 10 | 288 | 9.7 | 27.4 | 0.00 | 0.00 | 0.00 | 80 | 1020.2 |
| 20260507130036 | 11 | 290 | 9.7 | 22.5 | 0.00 | 0.00 | 0.00 | 80 | 1020.1 |
| 20260507124535 | 11 | 280 | 9.7 | 20.9 | 0.00 | 0.00 | 0.00 | 79 | 1020.1 |
| 20260507123034 | 11 | 271 | 11.3 | 27.4 | 0.00 | 0.00 | 0.00 | 79 | 1020.2 |
| 20260507121536 | 11 | 279 | 11.3 | 27.4 | 0.00 | 0.00 | 0.00 | 79 | 1020.3 |
| 20260507120032 | 11 | 274 | 9.7 | 22.5 | 0.00 | 0.00 | 0.00 | 79 | 1020.2 |
| 20260507114539 | 11 | 283 | 8.0 | 22.5 | 0.00 | 0.00 | 0.00 | 78 | 1020.2 |
| 20260507113035 | 11 | 269 | 9.7 | 24.1 | 0.00 | 0.00 | 0.00 | 78 | 1020.2 |
| 20260507111530 | 12 | 266 | 12.9 | 30.6 | 0.00 | 0.00 | 0.00 | 78 | 1020.1 |